sensor_id;sensor_type;location;lat;lon;timestamp;P1;durP1;ratioP1;P2;durP2;ratioP2
82671;SDS011;72378;52.468;13.432;2024-02-15T00:00:09;12.38;;;6.07;;
82671;SDS011;72378;52.468;13.432;2024-02-15T00:02:36;12.65;;;6.75;;
82671;SDS011;72378;52.468;13.432;2024-02-15T00:05:04;12.77;;;5.78;;
82671;SDS011;72378;52.468;13.432;2024-02-15T00:07:32;12.02;;;6.55;;
82671;SDS011;72378;52.468;13.432;2024-02-15T00:10:00;12.13;;;6.05;;
82671;SDS011;72378;52.468;13.432;2024-02-15T00:12:26;11.43;;;5.68;;
82671;SDS011;72378;52.468;13.432;2024-02-15T00:14:52;12.93;;;7.63;;
82671;SDS011;72378;52.468;13.432;2024-02-15T00:17:19;12.70;;;5.90;;
82671;SDS011;72378;52.468;13.432;2024-02-15T00:19:45;12.52;;;7.28;;
82671;SDS011;72378;52.468;13.432;2024-02-15T00:22:13;11.43;;;6.65;;
82671;SDS011;72378;52.468;13.432;2024-02-15T00:24:39;11.65;;;6.38;;
82671;SDS011;72378;52.468;13.432;2024-02-15T00:27:06;12.25;;;6.15;;
82671;SDS011;72378;52.468;13.432;2024-02-15T00:29:33;13.30;;;7.45;;
82671;SDS011;72378;52.468;13.432;2024-02-15T00:34:26;11.60;;;6.63;;
82671;SDS011;72378;52.468;13.432;2024-02-15T00:36:52;11.27;;;6.05;;
82671;SDS011;72378;52.468;13.432;2024-02-15T00:39:20;13.07;;;6.85;;
82671;SDS011;72378;52.468;13.432;2024-02-15T00:41:46;11.48;;;6.32;;
82671;SDS011;72378;52.468;13.432;2024-02-15T00:44:13;13.40;;;6.45;;
82671;SDS011;72378;52.468;13.432;2024-02-15T00:46:40;12.75;;;7.20;;
82671;SDS011;72378;52.468;13.432;2024-02-15T00:49:06;11.85;;;6.40;;
82671;SDS011;72378;52.468;13.432;2024-02-15T00:51:33;13.18;;;7.40;;
82671;SDS011;72378;52.468;13.432;2024-02-15T00:54:00;12.75;;;7.63;;
82671;SDS011;72378;52.468;13.432;2024-02-15T00:56:28;14.38;;;8.50;;
82671;SDS011;72378;52.468;13.432;2024-02-15T00:58:56;13.15;;;6.95;;
82671;SDS011;72378;52.468;13.432;2024-02-15T01:01:23;12.60;;;7.18;;
82671;SDS011;72378;52.468;13.432;2024-02-15T01:03:49;11.90;;;6.40;;
82671;SDS011;72378;52.468;13.432;2024-02-15T01:06:15;12.82;;;6.85;;
82671;SDS011;72378;52.468;13.432;2024-02-15T01:08:42;14.95;;;7.55;;
82671;SDS011;72378;52.468;13.432;2024-02-15T01:11:08;13.73;;;7.35;;
82671;SDS011;72378;52.468;13.432;2024-02-15T01:13:36;13.73;;;7.15;;
82671;SDS011;72378;52.468;13.432;2024-02-15T01:16:02;15.20;;;6.38;;
82671;SDS011;72378;52.468;13.432;2024-02-15T01:18:29;15.07;;;7.78;;
82671;SDS011;72378;52.468;13.432;2024-02-15T01:20:56;13.10;;;7.03;;
82671;SDS011;72378;52.468;13.432;2024-02-15T01:23:22;13.85;;;7.03;;
82671;SDS011;72378;52.468;13.432;2024-02-15T01:25:49;12.45;;;7.30;;
82671;SDS011;72378;52.468;13.432;2024-02-15T01:28:15;15.02;;;7.82;;
82671;SDS011;72378;52.468;13.432;2024-02-15T01:30:43;13.10;;;6.90;;
82671;SDS011;72378;52.468;13.432;2024-02-15T01:33:11;15.10;;;7.30;;
82671;SDS011;72378;52.468;13.432;2024-02-15T01:35:37;15.85;;;7.45;;
82671;SDS011;72378;52.468;13.432;2024-02-15T01:38:04;13.40;;;7.53;;
82671;SDS011;72378;52.468;13.432;2024-02-15T01:40:30;14.88;;;7.72;;
82671;SDS011;72378;52.468;13.432;2024-02-15T01:42:57;14.82;;;7.53;;
82671;SDS011;72378;52.468;13.432;2024-02-15T01:45:23;16.92;;;8.38;;
82671;SDS011;72378;52.468;13.432;2024-02-15T01:47:51;15.77;;;8.27;;
82671;SDS011;72378;52.468;13.432;2024-02-15T01:50:18;16.02;;;8.68;;
82671;SDS011;72378;52.468;13.432;2024-02-15T01:52:47;16.08;;;8.05;;
82671;SDS011;72378;52.468;13.432;2024-02-15T01:55:18;14.70;;;7.63;;
82671;SDS011;72378;52.468;13.432;2024-02-15T01:57:44;17.17;;;8.50;;
82671;SDS011;72378;52.468;13.432;2024-02-15T02:00:11;16.15;;;8.68;;
82671;SDS011;72378;52.468;13.432;2024-02-15T02:02:39;16.17;;;8.60;;
82671;SDS011;72378;52.468;13.432;2024-02-15T02:05:09;15.07;;;8.32;;
82671;SDS011;72378;52.468;13.432;2024-02-15T02:07:35;16.73;;;8.88;;
82671;SDS011;72378;52.468;13.432;2024-02-15T02:10:03;16.95;;;8.50;;
82671;SDS011;72378;52.468;13.432;2024-02-15T02:12:30;18.15;;;9.10;;
82671;SDS011;72378;52.468;13.432;2024-02-15T02:14:57;16.27;;;8.23;;
82671;SDS011;72378;52.468;13.432;2024-02-15T02:19:50;16.38;;;7.68;;
82671;SDS011;72378;52.468;13.432;2024-02-15T02:22:18;15.60;;;8.40;;
82671;SDS011;72378;52.468;13.432;2024-02-15T02:25:03;16.58;;;8.40;;
82671;SDS011;72378;52.468;13.432;2024-02-15T02:27:32;17.23;;;9.07;;
82671;SDS011;72378;52.468;13.432;2024-02-15T02:29:58;17.35;;;8.77;;
82671;SDS011;72378;52.468;13.432;2024-02-15T02:32:25;18.90;;;9.38;;
82671;SDS011;72378;52.468;13.432;2024-02-15T02:37:22;17.58;;;9.02;;
82671;SDS011;72378;52.468;13.432;2024-02-15T02:39:48;17.45;;;8.30;;
82671;SDS011;72378;52.468;13.432;2024-02-15T02:42:16;16.48;;;9.15;;
82671;SDS011;72378;52.468;13.432;2024-02-15T02:44:42;18.52;;;9.20;;
82671;SDS011;72378;52.468;13.432;2024-02-15T02:47:09;17.90;;;8.93;;
82671;SDS011;72378;52.468;13.432;2024-02-15T02:49:36;17.17;;;9.77;;
82671;SDS011;72378;52.468;13.432;2024-02-15T02:54:29;18.95;;;9.35;;
82671;SDS011;72378;52.468;13.432;2024-02-15T02:56:56;19.08;;;8.60;;
82671;SDS011;72378;52.468;13.432;2024-02-15T02:59:23;17.98;;;8.52;;
82671;SDS011;72378;52.468;13.432;2024-02-15T03:01:50;20.27;;;9.25;;
82671;SDS011;72378;52.468;13.432;2024-02-15T03:04:16;22.52;;;9.93;;
82671;SDS011;72378;52.468;13.432;2024-02-15T03:06:43;17.73;;;8.57;;
82671;SDS011;72378;52.468;13.432;2024-02-15T03:11:39;17.05;;;8.40;;
82671;SDS011;72378;52.468;13.432;2024-02-15T03:14:06;17.83;;;9.77;;
82671;SDS011;72378;52.468;13.432;2024-02-15T03:16:33;15.65;;;8.38;;
82671;SDS011;72378;52.468;13.432;2024-02-15T03:18:59;20.70;;;9.25;;
82671;SDS011;72378;52.468;13.432;2024-02-15T03:21:27;18.63;;;9.30;;
82671;SDS011;72378;52.468;13.432;2024-02-15T03:23:54;19.00;;;9.02;;
82671;SDS011;72378;52.468;13.432;2024-02-15T03:26:26;19.48;;;9.90;;
82671;SDS011;72378;52.468;13.432;2024-02-15T03:28:56;19.35;;;9.70;;
82671;SDS011;72378;52.468;13.432;2024-02-15T03:31:22;20.20;;;10.25;;
82671;SDS011;72378;52.468;13.432;2024-02-15T03:33:50;19.75;;;9.18;;
82671;SDS011;72378;52.468;13.432;2024-02-15T03:36:16;19.85;;;9.98;;
82671;SDS011;72378;52.468;13.432;2024-02-15T03:38:45;19.10;;;10.18;;
82671;SDS011;72378;52.468;13.432;2024-02-15T03:41:11;18.42;;;9.40;;
82671;SDS011;72378;52.468;13.432;2024-02-15T03:43:38;19.83;;;9.52;;
82671;SDS011;72378;52.468;13.432;2024-02-15T03:46:04;19.52;;;10.02;;
82671;SDS011;72378;52.468;13.432;2024-02-15T03:48:32;22.65;;;9.30;;
82671;SDS011;72378;52.468;13.432;2024-02-15T03:51:00;18.20;;;9.73;;
82671;SDS011;72378;52.468;13.432;2024-02-15T03:53:26;20.33;;;10.20;;
82671;SDS011;72378;52.468;13.432;2024-02-15T03:55:55;18.98;;;9.02;;
82671;SDS011;72378;52.468;13.432;2024-02-15T03:58:21;20.13;;;10.15;;
82671;SDS011;72378;52.468;13.432;2024-02-15T04:00:48;18.90;;;9.50;;
82671;SDS011;72378;52.468;13.432;2024-02-15T04:03:14;20.38;;;10.23;;
82671;SDS011;72378;52.468;13.432;2024-02-15T04:05:40;22.13;;;10.63;;
82671;SDS011;72378;52.468;13.432;2024-02-15T04:08:09;20.05;;;9.35;;
82671;SDS011;72378;52.468;13.432;2024-02-15T04:10:35;19.67;;;9.75;;
82671;SDS011;72378;52.468;13.432;2024-02-15T04:13:02;19.15;;;8.82;;
82671;SDS011;72378;52.468;13.432;2024-02-15T04:15:28;24.33;;;10.15;;
82671;SDS011;72378;52.468;13.432;2024-02-15T04:17:55;19.02;;;9.30;;
82671;SDS011;72378;52.468;13.432;2024-02-15T04:20:22;19.67;;;9.98;;
82671;SDS011;72378;52.468;13.432;2024-02-15T04:22:48;19.50;;;9.07;;
82671;SDS011;72378;52.468;13.432;2024-02-15T04:25:16;20.23;;;9.80;;
82671;SDS011;72378;52.468;13.432;2024-02-15T04:27:45;18.52;;;9.80;;
82671;SDS011;72378;52.468;13.432;2024-02-15T04:30:12;19.05;;;9.35;;
82671;SDS011;72378;52.468;13.432;2024-02-15T04:32:40;17.13;;;9.00;;
82671;SDS011;72378;52.468;13.432;2024-02-15T04:35:06;19.00;;;9.05;;
82671;SDS011;72378;52.468;13.432;2024-02-15T04:37:34;21.65;;;10.20;;
82671;SDS011;72378;52.468;13.432;2024-02-15T04:40:02;21.65;;;9.63;;
82671;SDS011;72378;52.468;13.432;2024-02-15T04:42:34;20.17;;;9.45;;
82671;SDS011;72378;52.468;13.432;2024-02-15T04:45:03;19.08;;;9.38;;
82671;SDS011;72378;52.468;13.432;2024-02-15T04:47:33;18.77;;;9.55;;
82671;SDS011;72378;52.468;13.432;2024-02-15T04:49:59;17.83;;;9.07;;
82671;SDS011;72378;52.468;13.432;2024-02-15T04:52:27;19.60;;;9.38;;
82671;SDS011;72378;52.468;13.432;2024-02-15T04:54:54;21.08;;;9.43;;
82671;SDS011;72378;52.468;13.432;2024-02-15T04:57:23;18.90;;;9.93;;
82671;SDS011;72378;52.468;13.432;2024-02-15T04:59:52;20.35;;;9.15;;
82671;SDS011;72378;52.468;13.432;2024-02-15T05:02:18;21.80;;;10.15;;
82671;SDS011;72378;52.468;13.432;2024-02-15T05:04:47;20.30;;;9.40;;
82671;SDS011;72378;52.468;13.432;2024-02-15T05:07:13;18.90;;;8.73;;
82671;SDS011;72378;52.468;13.432;2024-02-15T05:09:42;18.27;;;8.98;;
82671;SDS011;72378;52.468;13.432;2024-02-15T05:12:08;18.73;;;9.18;;
82671;SDS011;72378;52.468;13.432;2024-02-15T05:14:34;19.50;;;8.77;;
82671;SDS011;72378;52.468;13.432;2024-02-15T05:17:03;18.08;;;9.65;;
82671;SDS011;72378;52.468;13.432;2024-02-15T05:19:31;21.13;;;9.80;;
82671;SDS011;72378;52.468;13.432;2024-02-15T05:21:57;18.08;;;9.07;;
82671;SDS011;72378;52.468;13.432;2024-02-15T05:24:24;19.35;;;8.95;;
82671;SDS011;72378;52.468;13.432;2024-02-15T05:26:50;19.67;;;9.02;;
82671;SDS011;72378;52.468;13.432;2024-02-15T05:29:17;18.65;;;8.73;;
82671;SDS011;72378;52.468;13.432;2024-02-15T05:31:45;19.27;;;9.00;;
82671;SDS011;72378;52.468;13.432;2024-02-15T05:34:16;20.73;;;8.98;;
82671;SDS011;72378;52.468;13.432;2024-02-15T05:36:43;21.05;;;9.05;;
82671;SDS011;72378;52.468;13.432;2024-02-15T05:39:09;19.50;;;9.63;;
82671;SDS011;72378;52.468;13.432;2024-02-15T05:41:39;21.17;;;9.73;;
82671;SDS011;72378;52.468;13.432;2024-02-15T05:44:06;19.98;;;9.23;;
82671;SDS011;72378;52.468;13.432;2024-02-15T05:46:33;19.05;;;9.00;;
82671;SDS011;72378;52.468;13.432;2024-02-15T05:49:02;18.73;;;8.30;;
82671;SDS011;72378;52.468;13.432;2024-02-15T05:51:31;20.17;;;9.35;;
82671;SDS011;72378;52.468;13.432;2024-02-15T05:53:58;18.63;;;8.32;;
82671;SDS011;72378;52.468;13.432;2024-02-15T05:56:25;16.60;;;7.97;;
82671;SDS011;72378;52.468;13.432;2024-02-15T05:58:53;18.50;;;8.68;;
82671;SDS011;72378;52.468;13.432;2024-02-15T06:01:19;18.70;;;8.40;;
82671;SDS011;72378;52.468;13.432;2024-02-15T06:03:46;18.70;;;9.25;;
82671;SDS011;72378;52.468;13.432;2024-02-15T06:06:13;18.40;;;8.80;;
82671;SDS011;72378;52.468;13.432;2024-02-15T06:08:40;16.95;;;7.97;;
82671;SDS011;72378;52.468;13.432;2024-02-15T06:11:07;18.88;;;7.90;;
82671;SDS011;72378;52.468;13.432;2024-02-15T06:13:34;17.42;;;7.63;;
82671;SDS011;72378;52.468;13.432;2024-02-15T06:16:01;17.33;;;7.43;;
82671;SDS011;72378;52.468;13.432;2024-02-15T06:18:29;17.90;;;7.70;;
82671;SDS011;72378;52.468;13.432;2024-02-15T06:20:58;20.20;;;8.45;;
82671;SDS011;72378;52.468;13.432;2024-02-15T06:23:26;16.75;;;7.18;;
82671;SDS011;72378;52.468;13.432;2024-02-15T06:25:54;19.30;;;9.80;;
82671;SDS011;72378;52.468;13.432;2024-02-15T06:28:23;17.60;;;8.18;;
82671;SDS011;72378;52.468;13.432;2024-02-15T06:31:03;20.27;;;8.68;;
82671;SDS011;72378;52.468;13.432;2024-02-15T06:33:47;18.02;;;8.85;;
82671;SDS011;72378;52.468;13.432;2024-02-15T06:36:31;16.40;;;8.32;;
82671;SDS011;72378;52.468;13.432;2024-02-15T06:39:15;20.13;;;10.00;;
82671;SDS011;72378;52.468;13.432;2024-02-15T06:42:00;18.08;;;8.60;;
82671;SDS011;72378;52.468;13.432;2024-02-15T06:44:27;19.65;;;8.38;;
82671;SDS011;72378;52.468;13.432;2024-02-15T06:46:54;18.10;;;8.27;;
82671;SDS011;72378;52.468;13.432;2024-02-15T06:49:21;19.25;;;8.05;;
82671;SDS011;72378;52.468;13.432;2024-02-15T06:51:49;20.80;;;10.18;;
82671;SDS011;72378;52.468;13.432;2024-02-15T06:54:16;15.65;;;7.70;;
82671;SDS011;72378;52.468;13.432;2024-02-15T06:56:43;17.42;;;8.60;;
82671;SDS011;72378;52.468;13.432;2024-02-15T06:59:12;16.92;;;8.00;;
82671;SDS011;72378;52.468;13.432;2024-02-15T07:01:40;16.40;;;7.80;;
82671;SDS011;72378;52.468;13.432;2024-02-15T07:04:07;17.15;;;8.18;;
82671;SDS011;72378;52.468;13.432;2024-02-15T07:06:35;14.90;;;7.68;;
82671;SDS011;72378;52.468;13.432;2024-02-15T07:09:02;17.35;;;7.70;;
82671;SDS011;72378;52.468;13.432;2024-02-15T07:11:28;16.52;;;8.10;;
82671;SDS011;72378;52.468;13.432;2024-02-15T07:13:55;16.77;;;8.00;;
82671;SDS011;72378;52.468;13.432;2024-02-15T07:16:23;17.75;;;8.13;;
82671;SDS011;72378;52.468;13.432;2024-02-15T07:18:49;15.70;;;7.28;;
82671;SDS011;72378;52.468;13.432;2024-02-15T07:21:16;16.52;;;7.47;;
82671;SDS011;72378;52.468;13.432;2024-02-15T07:23:46;16.10;;;7.95;;
82671;SDS011;72378;52.468;13.432;2024-02-15T07:26:12;17.75;;;8.50;;
82671;SDS011;72378;52.468;13.432;2024-02-15T07:28:40;17.38;;;8.48;;
82671;SDS011;72378;52.468;13.432;2024-02-15T07:31:06;17.20;;;8.82;;
82671;SDS011;72378;52.468;13.432;2024-02-15T07:33:34;17.10;;;7.90;;
82671;SDS011;72378;52.468;13.432;2024-02-15T07:36:00;16.80;;;8.05;;
82671;SDS011;72378;52.468;13.432;2024-02-15T07:38:27;18.52;;;8.50;;
82671;SDS011;72378;52.468;13.432;2024-02-15T07:40:54;17.10;;;8.68;;
82671;SDS011;72378;52.468;13.432;2024-02-15T07:43:20;17.63;;;7.88;;
82671;SDS011;72378;52.468;13.432;2024-02-15T07:45:47;16.63;;;7.90;;
82671;SDS011;72378;52.468;13.432;2024-02-15T07:48:14;18.05;;;8.77;;
82671;SDS011;72378;52.468;13.432;2024-02-15T07:50:41;17.85;;;8.65;;
82671;SDS011;72378;52.468;13.432;2024-02-15T07:53:09;16.20;;;8.05;;
82671;SDS011;72378;52.468;13.432;2024-02-15T07:55:36;16.60;;;7.68;;
82671;SDS011;72378;52.468;13.432;2024-02-15T07:58:03;16.17;;;7.47;;
82671;SDS011;72378;52.468;13.432;2024-02-15T08:00:30;13.82;;;6.72;;
82671;SDS011;72378;52.468;13.432;2024-02-15T08:02:56;17.88;;;7.78;;
82671;SDS011;72378;52.468;13.432;2024-02-15T08:05:24;17.48;;;8.80;;
82671;SDS011;72378;52.468;13.432;2024-02-15T08:07:51;15.55;;;7.70;;
82671;SDS011;72378;52.468;13.432;2024-02-15T08:10:22;16.08;;;7.30;;
82671;SDS011;72378;52.468;13.432;2024-02-15T08:15:17;16.13;;;7.03;;
82671;SDS011;72378;52.468;13.432;2024-02-15T08:17:45;14.35;;;6.95;;
82671;SDS011;72378;52.468;13.432;2024-02-15T08:20:12;16.88;;;6.93;;
82671;SDS011;72378;52.468;13.432;2024-02-15T08:22:40;16.23;;;7.70;;
82671;SDS011;72378;52.468;13.432;2024-02-15T08:25:11;16.02;;;7.80;;
82671;SDS011;72378;52.468;13.432;2024-02-15T08:27:40;18.10;;;8.18;;
82671;SDS011;72378;52.468;13.432;2024-02-15T08:30:09;15.57;;;7.45;;
82671;SDS011;72378;52.468;13.432;2024-02-15T08:32:37;13.27;;;6.32;;
82671;SDS011;72378;52.468;13.432;2024-02-15T08:35:04;13.85;;;6.03;;
82671;SDS011;72378;52.468;13.432;2024-02-15T08:37:32;13.50;;;6.38;;
82671;SDS011;72378;52.468;13.432;2024-02-15T08:40:00;14.13;;;6.55;;
82671;SDS011;72378;52.468;13.432;2024-02-15T08:42:28;14.50;;;7.25;;
82671;SDS011;72378;52.468;13.432;2024-02-15T08:44:54;15.02;;;6.50;;
82671;SDS011;72378;52.468;13.432;2024-02-15T08:47:20;15.35;;;7.50;;
82671;SDS011;72378;52.468;13.432;2024-02-15T08:49:47;14.80;;;7.50;;
82671;SDS011;72378;52.468;13.432;2024-02-15T08:52:13;13.93;;;6.47;;
82671;SDS011;72378;52.468;13.432;2024-02-15T08:54:39;13.23;;;6.22;;
82671;SDS011;72378;52.468;13.432;2024-02-15T08:57:06;15.63;;;7.55;;
82671;SDS011;72378;52.468;13.432;2024-02-15T08:59:34;14.65;;;7.20;;
82671;SDS011;72378;52.468;13.432;2024-02-15T09:02:00;14.40;;;6.85;;
82671;SDS011;72378;52.468;13.432;2024-02-15T09:04:27;15.18;;;6.80;;
82671;SDS011;72378;52.468;13.432;2024-02-15T09:06:54;15.07;;;6.93;;
82671;SDS011;72378;52.468;13.432;2024-02-15T09:09:21;14.70;;;6.93;;
82671;SDS011;72378;52.468;13.432;2024-02-15T09:11:47;17.38;;;6.97;;
82671;SDS011;72378;52.468;13.432;2024-02-15T09:14:13;13.93;;;6.65;;
82671;SDS011;72378;52.468;13.432;2024-02-15T09:16:41;14.60;;;6.32;;
82671;SDS011;72378;52.468;13.432;2024-02-15T09:19:07;14.43;;;6.55;;
82671;SDS011;72378;52.468;13.432;2024-02-15T09:21:34;13.80;;;6.32;;
82671;SDS011;72378;52.468;13.432;2024-02-15T09:24:01;12.95;;;5.82;;
82671;SDS011;72378;52.468;13.432;2024-02-15T09:26:28;12.75;;;6.40;;
82671;SDS011;72378;52.468;13.432;2024-02-15T09:28:54;15.20;;;7.00;;
82671;SDS011;72378;52.468;13.432;2024-02-15T09:31:21;12.15;;;6.15;;
82671;SDS011;72378;52.468;13.432;2024-02-15T09:33:51;12.93;;;6.50;;
82671;SDS011;72378;52.468;13.432;2024-02-15T09:36:17;13.50;;;5.65;;
82671;SDS011;72378;52.468;13.432;2024-02-15T09:38:43;12.95;;;5.78;;
82671;SDS011;72378;52.468;13.432;2024-02-15T09:41:11;13.38;;;5.68;;
82671;SDS011;72378;52.468;13.432;2024-02-15T09:43:38;10.57;;;5.15;;
82671;SDS011;72378;52.468;13.432;2024-02-15T09:46:04;11.05;;;5.40;;
82671;SDS011;72378;52.468;13.432;2024-02-15T09:48:31;11.55;;;5.78;;
82671;SDS011;72378;52.468;13.432;2024-02-15T09:53:26;11.70;;;5.25;;
82671;SDS011;72378;52.468;13.432;2024-02-15T09:55:54;11.00;;;5.53;;
82671;SDS011;72378;52.468;13.432;2024-02-15T09:58:28;13.23;;;5.78;;
82671;SDS011;72378;52.468;13.432;2024-02-15T10:00:58;12.18;;;5.68;;
82671;SDS011;72378;52.468;13.432;2024-02-15T10:03:27;11.57;;;5.50;;
82671;SDS011;72378;52.468;13.432;2024-02-15T10:05:56;12.85;;;6.15;;
82671;SDS011;72378;52.468;13.432;2024-02-15T10:08:24;14.13;;;6.60;;
82671;SDS011;72378;52.468;13.432;2024-02-15T10:10:57;13.82;;;4.97;;
82671;SDS011;72378;52.468;13.432;2024-02-15T10:13:32;11.95;;;5.13;;
82671;SDS011;72378;52.468;13.432;2024-02-15T10:15:58;11.77;;;5.00;;
82671;SDS011;72378;52.468;13.432;2024-02-15T10:18:24;11.30;;;5.47;;
82671;SDS011;72378;52.468;13.432;2024-02-15T10:20:57;12.27;;;6.10;;
82671;SDS011;72378;52.468;13.432;2024-02-15T10:23:25;13.80;;;5.68;;
82671;SDS011;72378;52.468;13.432;2024-02-15T10:25:51;10.90;;;4.97;;
82671;SDS011;72378;52.468;13.432;2024-02-15T10:28:20;12.75;;;5.57;;
82671;SDS011;72378;52.468;13.432;2024-02-15T10:30:48;11.13;;;5.45;;
82671;SDS011;72378;52.468;13.432;2024-02-15T10:33:17;11.15;;;5.05;;
82671;SDS011;72378;52.468;13.432;2024-02-15T10:35:45;9.82;;;5.13;;
82671;SDS011;72378;52.468;13.432;2024-02-15T10:38:12;10.98;;;5.88;;
82671;SDS011;72378;52.468;13.432;2024-02-15T10:40:41;9.90;;;5.32;;
82671;SDS011;72378;52.468;13.432;2024-02-15T10:43:08;10.63;;;5.25;;
82671;SDS011;72378;52.468;13.432;2024-02-15T10:45:38;10.98;;;5.10;;
82671;SDS011;72378;52.468;13.432;2024-02-15T10:48:06;10.25;;;5.35;;
82671;SDS011;72378;52.468;13.432;2024-02-15T10:50:33;9.90;;;5.00;;
82671;SDS011;72378;52.468;13.432;2024-02-15T10:53:00;9.45;;;4.90;;
82671;SDS011;72378;52.468;13.432;2024-02-15T10:55:36;9.38;;;4.20;;
82671;SDS011;72378;52.468;13.432;2024-02-15T10:58:06;9.10;;;4.32;;
82671;SDS011;72378;52.468;13.432;2024-02-15T11:00:33;10.27;;;4.70;;
82671;SDS011;72378;52.468;13.432;2024-02-15T11:03:02;10.52;;;5.43;;
82671;SDS011;72378;52.468;13.432;2024-02-15T11:05:31;11.50;;;5.40;;
82671;SDS011;72378;52.468;13.432;2024-02-15T11:07:59;9.20;;;4.25;;
82671;SDS011;72378;52.468;13.432;2024-02-15T11:10:26;9.18;;;4.45;;
82671;SDS011;72378;52.468;13.432;2024-02-15T11:12:53;8.35;;;3.85;;
82671;SDS011;72378;52.468;13.432;2024-02-15T11:21:10;8.65;;;3.80;;
82671;SDS011;72378;52.468;13.432;2024-02-15T11:26:03;8.00;;;3.95;;
82671;SDS011;72378;52.468;13.432;2024-02-15T11:28:36;7.15;;;3.33;;
82671;SDS011;72378;52.468;13.432;2024-02-15T11:31:05;7.85;;;3.58;;
82671;SDS011;72378;52.468;13.432;2024-02-15T11:33:34;8.98;;;3.60;;
82671;SDS011;72378;52.468;13.432;2024-02-15T11:36:04;7.78;;;3.55;;
82671;SDS011;72378;52.468;13.432;2024-02-15T11:38:31;8.18;;;3.47;;
82671;SDS011;72378;52.468;13.432;2024-02-15T11:40:59;7.43;;;3.67;;
82671;SDS011;72378;52.468;13.432;2024-02-15T11:46:21;9.85;;;5.03;;
82671;SDS011;72378;52.468;13.432;2024-02-15T11:48:49;7.82;;;3.42;;
82671;SDS011;72378;52.468;13.432;2024-02-15T11:51:30;8.15;;;3.13;;
82671;SDS011;72378;52.468;13.432;2024-02-15T11:54:01;7.70;;;3.30;;
82671;SDS011;72378;52.468;13.432;2024-02-15T11:56:31;6.53;;;2.88;;
82671;SDS011;72378;52.468;13.432;2024-02-15T11:59:02;7.57;;;3.60;;
82671;SDS011;72378;52.468;13.432;2024-02-15T12:01:32;7.63;;;3.70;;
82671;SDS011;72378;52.468;13.432;2024-02-15T12:04:16;7.28;;;2.90;;
82671;SDS011;72378;52.468;13.432;2024-02-15T12:07:01;7.80;;;3.72;;
82671;SDS011;72378;52.468;13.432;2024-02-15T12:09:47;8.27;;;3.72;;
82671;SDS011;72378;52.468;13.432;2024-02-15T12:12:31;7.15;;;3.03;;
82671;SDS011;72378;52.468;13.432;2024-02-15T12:15:15;12.32;;;6.65;;
82671;SDS011;72378;52.468;13.432;2024-02-15T12:18:14;7.82;;;2.95;;
82671;SDS011;72378;52.468;13.432;2024-02-15T12:20:54;7.43;;;3.15;;
82671;SDS011;72378;52.468;13.432;2024-02-15T12:23:21;8.77;;;4.22;;
82671;SDS011;72378;52.468;13.432;2024-02-15T12:25:50;7.97;;;3.47;;
82671;SDS011;72378;52.468;13.432;2024-02-15T12:28:17;6.93;;;3.10;;
82671;SDS011;72378;52.468;13.432;2024-02-15T12:30:43;7.75;;;3.60;;
82671;SDS011;72378;52.468;13.432;2024-02-15T12:33:11;7.88;;;3.60;;
82671;SDS011;72378;52.468;13.432;2024-02-15T12:35:46;8.68;;;3.85;;
82671;SDS011;72378;52.468;13.432;2024-02-15T12:38:12;8.35;;;3.70;;
82671;SDS011;72378;52.468;13.432;2024-02-15T12:40:41;7.97;;;3.20;;
82671;SDS011;72378;52.468;13.432;2024-02-15T12:43:08;9.23;;;3.25;;
82671;SDS011;72378;52.468;13.432;2024-02-15T12:48:02;8.23;;;2.90;;
82671;SDS011;72378;52.468;13.432;2024-02-15T12:50:30;8.57;;;3.10;;
82671;SDS011;72378;52.468;13.432;2024-02-15T12:52:58;8.70;;;3.00;;
82671;SDS011;72378;52.468;13.432;2024-02-15T12:55:28;11.50;;;5.53;;
82671;SDS011;72378;52.468;13.432;2024-02-15T12:57:59;5.70;;;2.65;;
82671;SDS011;72378;52.468;13.432;2024-02-15T13:00:28;11.15;;;5.30;;
82671;SDS011;72378;52.468;13.432;2024-02-15T13:02:57;6.63;;;2.67;;
82671;SDS011;72378;52.468;13.432;2024-02-15T13:05:24;7.72;;;3.13;;
82671;SDS011;72378;52.468;13.432;2024-02-15T13:07:52;7.65;;;2.97;;
82671;SDS011;72378;52.468;13.432;2024-02-15T13:10:21;8.38;;;3.15;;
82671;SDS011;72378;52.468;13.432;2024-02-15T13:12:48;6.63;;;2.70;;
82671;SDS011;72378;52.468;13.432;2024-02-15T13:15:17;7.00;;;2.63;;
82671;SDS011;72378;52.468;13.432;2024-02-15T13:17:46;6.63;;;3.10;;
82671;SDS011;72378;52.468;13.432;2024-02-15T13:20:16;7.95;;;2.90;;
82671;SDS011;72378;52.468;13.432;2024-02-15T13:22:45;6.40;;;2.53;;
82671;SDS011;72378;52.468;13.432;2024-02-15T13:25:13;6.63;;;2.83;;
82671;SDS011;72378;52.468;13.432;2024-02-15T13:27:42;11.90;;;4.88;;
82671;SDS011;72378;52.468;13.432;2024-02-15T13:30:11;7.93;;;3.65;;
82671;SDS011;72378;52.468;13.432;2024-02-15T13:35:06;6.07;;;2.33;;
82671;SDS011;72378;52.468;13.432;2024-02-15T13:37:38;5.70;;;2.30;;
82671;SDS011;72378;52.468;13.432;2024-02-15T13:40:07;6.15;;;2.50;;
82671;SDS011;72378;52.468;13.432;2024-02-15T13:42:40;24.27;;;9.65;;
82671;SDS011;72378;52.468;13.432;2024-02-15T13:45:09;8.32;;;3.75;;
82671;SDS011;72378;52.468;13.432;2024-02-15T13:47:36;8.48;;;3.33;;
82671;SDS011;72378;52.468;13.432;2024-02-15T13:52:29;8.18;;;3.65;;
82671;SDS011;72378;52.468;13.432;2024-02-15T13:54:56;6.85;;;2.50;;
82671;SDS011;72378;52.468;13.432;2024-02-15T13:57:22;6.53;;;2.65;;
82671;SDS011;72378;52.468;13.432;2024-02-15T13:59:49;7.63;;;2.70;;
82671;SDS011;72378;52.468;13.432;2024-02-15T14:02:16;8.85;;;3.55;;
82671;SDS011;72378;52.468;13.432;2024-02-15T14:04:43;10.63;;;4.10;;
82671;SDS011;72378;52.468;13.432;2024-02-15T14:07:10;20.15;;;7.45;;
82671;SDS011;72378;52.468;13.432;2024-02-15T14:09:37;11.50;;;5.13;;
82671;SDS011;72378;52.468;13.432;2024-02-15T14:12:03;16.50;;;7.78;;
82671;SDS011;72378;52.468;13.432;2024-02-15T14:14:31;15.43;;;6.25;;
82671;SDS011;72378;52.468;13.432;2024-02-15T14:16:57;12.35;;;5.65;;
82671;SDS011;72378;52.468;13.432;2024-02-15T14:19:25;11.50;;;5.25;;
82671;SDS011;72378;52.468;13.432;2024-02-15T14:21:52;7.78;;;2.95;;
82671;SDS011;72378;52.468;13.432;2024-02-15T14:24:19;14.90;;;6.15;;
82671;SDS011;72378;52.468;13.432;2024-02-15T14:26:48;6.88;;;1.95;;
82671;SDS011;72378;52.468;13.432;2024-02-15T14:31:45;15.88;;;6.93;;
82671;SDS011;72378;52.468;13.432;2024-02-15T14:34:30;22.77;;;8.77;;
82671;SDS011;72378;52.468;13.432;2024-02-15T14:36:57;12.05;;;5.22;;
82671;SDS011;72378;52.468;13.432;2024-02-15T14:39:26;12.23;;;5.97;;
82671;SDS011;72378;52.468;13.432;2024-02-15T14:41:52;6.90;;;3.35;;
82671;SDS011;72378;52.468;13.432;2024-02-15T14:44:18;10.43;;;4.20;;
82671;SDS011;72378;52.468;13.432;2024-02-15T14:46:45;5.85;;;2.78;;
82671;SDS011;72378;52.468;13.432;2024-02-15T14:49:11;6.63;;;2.47;;
82671;SDS011;72378;52.468;13.432;2024-02-15T14:51:39;6.43;;;2.70;;
82671;SDS011;72378;52.468;13.432;2024-02-15T14:54:07;7.15;;;2.75;;
82671;SDS011;72378;52.468;13.432;2024-02-15T14:56:33;8.85;;;3.25;;
82671;SDS011;72378;52.468;13.432;2024-02-15T14:58:59;10.82;;;5.43;;
82671;SDS011;72378;52.468;13.432;2024-02-15T15:01:26;25.67;;;11.10;;
82671;SDS011;72378;52.468;13.432;2024-02-15T15:03:54;9.52;;;4.05;;
82671;SDS011;72378;52.468;13.432;2024-02-15T15:06:22;55.83;;;23.98;;